Time,TemperatureF,DewpointF,PressureIn,WindDirection,WindDirectionDegrees,WindSpeedMPH,WindSpeedGustMPH,Humidity,HourlyPrecipIn,Conditions,Clouds,dailyrainin,SoftwareType,DateUTC
2013-06-23 00:07:00,67.7,66.0,30.11,WNW,291,0.0,0.0,93,0.00,,,0.00,weatherlink.com 1.10,2013-06-23 04:07:00,
2013-06-23 00:22:00,67.6,66.0,30.12,WNW,291,0.0,0.0,94,0.00,,,0.00,weatherlink.com 1.10,2013-06-23 04:22:00,
2013-06-23 00:37:00,67.5,66.0,30.12,WNW,290,0.0,0.0,94,0.00,,,0.00,weatherlink.com 1.10,2013-06-23 04:37:00,
2013-06-23 00:52:00,67.3,66.0,30.12,WNW,291,0.0,0.0,94,0.00,,,0.00,weatherlink.com 1.10,2013-06-23 04:52:00,
2013-06-23 01:07:00,66.8,65.0,30.12,WNW,290,0.0,0.0,94,0.00,,,0.00,weatherlink.com 1.10,2013-06-23 05:07:00,
2013-06-23 01:22:00,66.6,65.0,30.11,WNW,290,0.0,0.0,95,0.00,,,0.00,weatherlink.com 1.10,2013-06-23 05:22:00,
2013-06-23 01:37:00,66.4,65.0,30.11,WNW,290,0.0,0.0,95,0.00,,,0.00,weatherlink.com 1.10,2013-06-23 05:37:00,
2013-06-23 01:52:00,66.2,65.0,30.10,WNW,290,0.0,0.0,95,0.00,,,0.00,weatherlink.com 1.10,2013-06-23 05:52:00,
2013-06-23 02:07:00,65.9,65.0,30.10,WNW,291,0.0,1.0,95,0.00,,,0.00,weatherlink.com 1.10,2013-06-23 06:07:00,
2013-06-23 02:22:00,65.7,64.0,30.09,WNW,290,0.0,0.0,95,0.00,,,0.00,weatherlink.com 1.10,2013-06-23 06:22:00,
2013-06-23 02:37:00,65.5,64.0,30.09,WNW,291,0.0,0.0,95,0.00,,,0.00,weatherlink.com 1.10,2013-06-23 06:37:00,
2013-06-23 02:52:00,65.3,64.0,30.09,WNW,290,0.0,0.0,95,0.00,,,0.00,weatherlink.com 1.10,2013-06-23 06:52:00,
2013-06-23 03:07:00,65.1,64.0,30.09,WNW,291,0.0,0.0,95,0.00,,,0.00,weatherlink.com 1.10,2013-06-23 07:07:00,
2013-06-23 03:22:00,64.9,64.0,30.09,WNW,291,0.0,0.0,96,0.00,,,0.00,weatherlink.com 1.10,2013-06-23 07:22:00,
2013-06-23 03:37:00,64.6,64.0,30.10,WNW,291,0.0,0.0,96,0.00,,,0.00,weatherlink.com 1.10,2013-06-23 07:37:00,
2013-06-23 03:52:00,64.5,63.0,30.10,WNW,291,0.0,0.0,96,0.00,,,0.00,weatherlink.com 1.10,2013-06-23 07:52:00,
2013-06-23 04:07:00,64.4,63.0,30.10,WNW,290,0.0,0.0,96,0.00,,,0.00,weatherlink.com 1.10,2013-06-23 08:07:00,
2013-06-23 04:22:00,64.2,63.0,30.10,WNW,290,0.0,0.0,96,0.00,,,0.00,weatherlink.com 1.10,2013-06-23 08:22:00,
2013-06-23 04:37:00,64.2,63.0,30.10,WNW,291,0.0,0.0,96,0.00,,,0.00,weatherlink.com 1.10,2013-06-23 08:37:00,
2013-06-23 04:52:00,63.9,63.0,30.10,WNW,290,0.0,0.0,96,0.00,,,0.00,weatherlink.com 1.10,2013-06-23 08:52:00,
2013-06-23 05:07:00,63.9,63.0,30.11,WNW,291,0.0,0.0,96,0.00,,,0.00,weatherlink.com 1.10,2013-06-23 09:07:00,
2013-06-23 05:22:00,63.7,63.0,30.11,WNW,291,0.0,0.0,96,0.00,,,0.00,weatherlink.com 1.10,2013-06-23 09:22:00,
2013-06-23 05:37:00,63.5,62.0,30.11,WNW,290,0.0,0.0,96,0.00,,,0.00,weatherlink.com 1.10,2013-06-23 09:37:00,
2013-06-23 05:52:00,63.3,62.0,30.11,WNW,291,0.0,0.0,96,0.00,,,0.00,weatherlink.com 1.10,2013-06-23 09:52:00,
2013-06-23 06:07:00,63.5,63.0,30.12,WNW,291,0.0,1.0,97,0.00,,,0.00,weatherlink.com 1.10,2013-06-23 10:07:00,
2013-06-23 06:22:00,63.2,62.0,30.12,WNW,291,0.0,1.0,96,0.00,,,0.00,weatherlink.com 1.10,2013-06-23 10:22:00,
2013-06-23 06:37:00,63.4,63.0,30.13,WNW,290,0.0,0.0,97,0.00,,,0.00,weatherlink.com 1.10,2013-06-23 10:37:00,
2013-06-23 06:52:00,63.7,63.0,30.13,WNW,291,0.0,1.0,97,0.00,,,0.00,weatherlink.com 1.10,2013-06-23 10:52:00,
2013-06-23 07:07:00,64.4,64.0,30.14,WNW,290,0.0,0.0,97,0.00,,,0.00,weatherlink.com 1.10,2013-06-23 11:07:00,
2013-06-23 07:22:00,66.1,65.0,30.14,SSE,150,0.0,1.0,97,0.00,,,0.00,weatherlink.com 1.10,2013-06-23 11:22:00,
2013-06-23 07:37:00,68.0,66.0,30.14,SSE,151,0.0,1.0,94,0.00,,,0.00,weatherlink.com 1.10,2013-06-23 11:37:00,
2013-06-23 07:52:00,69.8,67.0,30.14,South,175,1.0,1.0,90,0.00,,,0.00,weatherlink.com 1.10,2013-06-23 11:52:00,
2013-06-23 08:07:00,70.2,68.0,30.15,South,183,1.0,1.0,91,0.00,,,0.00,weatherlink.com 1.10,2013-06-23 12:07:00,
2013-06-23 08:22:00,70.2,67.0,30.15,South,183,0.0,1.0,88,0.00,,,0.00,weatherlink.com 1.10,2013-06-23 12:22:00,
2013-06-23 08:37:00,70.5,67.0,30.15,South,183,0.0,0.0,89,0.00,,,0.00,weatherlink.com 1.10,2013-06-23 12:37:00,
2013-06-23 08:53:00,71.2,68.0,30.15,South,183,0.0,0.0,89,0.00,,,0.00,weatherlink.com 1.10,2013-06-23 12:53:00,
2013-06-23 09:08:00,72.6,68.0,30.15,SSE,153,0.0,1.0,85,0.00,,,0.00,weatherlink.com 1.10,2013-06-23 13:08:00,
2013-06-23 09:23:00,73.9,69.0,30.15,SSE,153,1.0,2.0,83,0.00,,,0.00,weatherlink.com 1.10,2013-06-23 13:23:00,
2013-06-23 09:38:00,75.8,68.0,30.15,SE,146,1.0,3.0,76,0.00,,,0.00,weatherlink.com 1.10,2013-06-23 13:38:00,
2013-06-23 09:53:00,76.5,69.0,30.15,South,174,0.0,2.0,78,0.00,,,0.00,weatherlink.com 1.10,2013-06-23 13:53:00,
2013-06-23 10:08:00,76.6,69.0,30.14,South,176,0.0,4.0,78,0.00,,,0.00,weatherlink.com 1.10,2013-06-23 14:08:00,
2013-06-23 10:23:00,76.6,69.0,30.15,South,181,0.0,3.0,78,0.00,,,0.00,weatherlink.com 1.10,2013-06-23 14:23:00,
2013-06-23 10:38:00,76.7,68.0,30.14,SSE,155,1.0,4.0,75,0.00,,,0.00,weatherlink.com 1.10,2013-06-23 14:38:00,
2013-06-23 10:53:00,77.0,68.0,30.14,SE,146,2.0,2.0,74,0.00,,,0.00,weatherlink.com 1.10,2013-06-23 14:53:00,
2013-06-23 11:08:00,77.6,70.0,30.14,SSE,148,1.0,2.0,77,0.00,,,0.00,weatherlink.com 1.10,2013-06-23 15:08:00,
2013-06-23 11:23:00,79.9,71.0,30.14,SE,135,1.0,3.0,73,0.00,,,0.00,weatherlink.com 1.10,2013-06-23 15:23:00,
2013-06-23 11:38:00,80.0,71.0,30.14,SE,146,2.0,3.0,74,0.00,,,0.00,weatherlink.com 1.10,2013-06-23 15:38:00,
2013-06-23 11:53:00,79.9,71.0,30.14,SE,135,0.0,3.0,74,0.00,,,0.00,weatherlink.com 1.10,2013-06-23 15:53:00,
2013-06-23 12:08:00,80.0,71.0,30.14,SSE,150,0.0,2.0,74,0.00,,,0.00,weatherlink.com 1.10,2013-06-23 16:08:00,
2013-06-23 12:23:00,81.3,71.0,30.14,SE,134,2.0,5.0,70,0.00,,,0.00,weatherlink.com 1.10,2013-06-23 16:23:00,
2013-06-23 12:38:00,81.6,71.0,30.14,South,181,0.0,4.0,70,0.00,,,0.00,weatherlink.com 1.10,2013-06-23 16:38:00,
2013-06-23 12:53:00,82.5,71.0,30.13,SSE,166,2.0,3.0,69,0.00,,,0.00,weatherlink.com 1.10,2013-06-23 16:53:00,
2013-06-23 13:08:00,82.5,71.0,30.13,SE,139,1.0,6.0,68,0.00,,,0.00,weatherlink.com 1.10,2013-06-23 17:08:00,
2013-06-23 13:23:00,82.1,71.0,30.12,SE,136,0.0,4.0,69,0.00,,,0.00,weatherlink.com 1.10,2013-06-23 17:23:00,
2013-06-23 13:38:00,82.9,71.0,30.11,SW,232,2.0,2.0,68,0.00,,,0.00,weatherlink.com 1.10,2013-06-23 17:38:00,
2013-06-23 13:53:00,83.2,72.0,30.10,SE,145,2.0,3.0,69,0.00,,,0.00,weatherlink.com 1.10,2013-06-23 17:53:00,
2013-06-23 14:08:00,83.8,71.0,30.10,SE,141,0.0,5.0,65,0.00,,,0.00,weatherlink.com 1.10,2013-06-23 18:08:00,
2013-06-23 14:23:00,83.5,70.0,30.09,SSW,204,1.0,4.0,64,0.00,,,0.00,weatherlink.com 1.10,2013-06-23 18:23:00,
2013-06-23 14:38:00,83.2,70.0,30.08,WNW,300,3.0,6.0,64,0.00,,,0.00,weatherlink.com 1.10,2013-06-23 18:38:00,
2013-06-23 14:53:00,83.9,69.0,30.07,SSE,158,2.0,5.0,61,0.00,,,0.00,weatherlink.com 1.10,2013-06-23 18:53:00,
2013-06-23 15:08:00,83.9,67.0,30.07,SW,225,0.0,4.0,57,0.00,,,0.00,weatherlink.com 1.10,2013-06-23 19:08:00,
2013-06-23 15:23:00,84.7,68.0,30.06,SSE,153,1.0,3.0,58,0.00,,,0.00,weatherlink.com 1.10,2013-06-23 19:23:00,
2013-06-23 15:38:00,85.9,67.0,30.06,SE,131,3.0,4.0,53,0.00,,,0.00,weatherlink.com 1.10,2013-06-23 19:38:00,
2013-06-23 15:53:00,85.7,69.0,30.06,SSE,155,2.0,3.0,58,0.00,,,0.00,weatherlink.com 1.10,2013-06-23 19:53:00,
2013-06-23 16:08:00,85.7,69.0,30.06,WSW,257,2.0,4.0,58,0.00,,,0.00,weatherlink.com 1.10,2013-06-23 20:08:00,
2013-06-23 16:23:00,85.4,68.0,30.06,SSE,148,0.0,2.0,57,0.00,,,0.00,weatherlink.com 1.10,2013-06-23 20:23:00,
2013-06-23 16:39:00,85.4,69.0,30.05,West,281,1.0,3.0,58,0.00,,,0.00,weatherlink.com 1.10,2013-06-23 20:39:00,
2013-06-23 16:54:00,85.6,68.0,30.05,SSW,204,2.0,5.0,56,0.00,,,0.00,weatherlink.com 1.10,2013-06-23 20:54:00,
2013-06-23 17:09:00,85.5,68.0,30.05,West,270,1.0,2.0,57,0.00,,,0.00,weatherlink.com 1.10,2013-06-23 21:09:00,
2013-06-23 17:24:00,86.2,69.0,30.05,West,260,0.0,2.0,57,0.00,,,0.00,weatherlink.com 1.10,2013-06-23 21:24:00,
2013-06-23 17:39:00,85.9,69.0,30.04,West,267,0.0,3.0,57,0.00,,,0.00,weatherlink.com 1.10,2013-06-23 21:39:00,
2013-06-23 17:54:00,85.4,70.0,30.04,West,266,0.0,2.0,60,0.00,,,0.00,weatherlink.com 1.10,2013-06-23 21:54:00,
2013-06-23 18:09:00,84.9,69.0,30.03,NW,305,0.0,2.0,59,0.00,,,0.00,weatherlink.com 1.10,2013-06-23 22:09:00,
2013-06-23 18:24:00,83.9,72.0,30.03,WSW,249,1.0,2.0,67,0.00,,,0.00,weatherlink.com 1.10,2013-06-23 22:24:00,
2013-06-23 18:39:00,83.1,70.0,30.03,SW,231,0.0,2.0,64,0.00,,,0.00,weatherlink.com 1.10,2013-06-23 22:39:00,
2013-06-23 18:54:00,82.6,72.0,30.03,WSW,248,0.0,1.0,71,0.00,,,0.00,weatherlink.com 1.10,2013-06-23 22:54:00,
2013-06-23 19:09:00,81.9,72.0,30.03,WSW,248,0.0,0.0,72,0.00,,,0.00,weatherlink.com 1.10,2013-06-23 23:09:00,
2013-06-23 19:24:00,81.2,71.0,30.04,WSW,248,1.0,1.0,72,0.00,,,0.00,weatherlink.com 1.10,2013-06-23 23:24:00,
2013-06-23 19:39:00,80.5,71.0,30.04,WSW,248,0.0,1.0,73,0.00,,,0.00,weatherlink.com 1.10,2013-06-23 23:39:00,
2013-06-23 19:54:00,79.6,71.0,30.04,WSW,248,0.0,0.0,74,0.00,,,0.00,weatherlink.com 1.10,2013-06-23 23:54:00,
2013-06-23 20:09:00,78.7,70.0,30.05,WSW,248,0.0,1.0,75,0.00,,,0.00,weatherlink.com 1.10,2013-06-24 00:09:00,
2013-06-23 20:24:00,78.0,70.0,30.05,WSW,248,0.0,0.0,76,0.00,,,0.00,weatherlink.com 1.10,2013-06-24 00:24:00,
2013-06-23 20:39:00,77.5,70.0,30.05,WSW,248,0.0,0.0,78,0.00,,,0.00,weatherlink.com 1.10,2013-06-24 00:39:00,
2013-06-23 20:54:00,76.8,70.0,30.05,WSW,248,0.0,0.0,79,0.00,,,0.00,weatherlink.com 1.10,2013-06-24 00:54:00,
2013-06-23 21:09:00,76.0,70.0,30.05,WSW,248,0.0,0.0,81,0.00,,,0.00,weatherlink.com 1.10,2013-06-24 01:09:00,
2013-06-23 21:24:00,75.1,70.0,30.06,WSW,248,0.0,0.0,83,0.00,,,0.00,weatherlink.com 1.10,2013-06-24 01:24:00,
2013-06-23 21:39:00,74.4,69.0,30.07,WSW,248,0.0,0.0,84,0.00,,,0.00,weatherlink.com 1.10,2013-06-24 01:39:00,
2013-06-23 21:54:00,73.6,69.0,30.07,WSW,248,0.0,0.0,86,0.00,,,0.00,weatherlink.com 1.10,2013-06-24 01:54:00,
2013-06-23 22:09:00,72.8,69.0,30.08,WSW,248,0.0,0.0,87,0.00,,,0.00,weatherlink.com 1.10,2013-06-24 02:09:00,
2013-06-23 22:24:00,72.2,69.0,30.09,WSW,248,0.0,0.0,89,0.00,,,0.00,weatherlink.com 1.10,2013-06-24 02:24:00,
2013-06-23 22:39:00,71.6,69.0,30.09,WSW,248,0.0,0.0,90,0.00,,,0.00,weatherlink.com 1.10,2013-06-24 02:39:00,
2013-06-23 22:54:00,70.9,68.0,30.10,WSW,248,0.0,0.0,90,0.00,,,0.00,weatherlink.com 1.10,2013-06-24 02:54:00,
2013-06-23 23:09:00,70.2,68.0,30.10,WSW,248,0.0,0.0,91,0.00,,,0.00,weatherlink.com 1.10,2013-06-24 03:09:00,
2013-06-23 23:24:00,69.7,67.0,30.10,WSW,248,0.0,0.0,92,0.00,,,0.00,weatherlink.com 1.10,2013-06-24 03:24:00,
2013-06-23 23:39:00,69.3,67.0,30.11,WSW,248,0.0,0.0,93,0.00,,,0.00,weatherlink.com 1.10,2013-06-24 03:39:00,
2013-06-23 23:54:00,68.8,67.0,30.11,WSW,247,0.0,1.0,93,0.00,,,0.00,weatherlink.com 1.10,2013-06-24 03:54:00,